Alexander von Humboldt II — DDKK2 — position and weather

sailwx.info

Track history (hours):
 
Tides and Currents Weather Stations Pressure Air Temp Water Temp Dewpoint Dewpoint Depression Visibility Wind Speed Wind Dir Waves Ship Positions

Alexander von Humboldt II

Ship's website: https://www.alex-2.de/en/

Last reported at 2018-Dec-09 16:59 UTC. Time now 2018-Dec-11 01:16 UTC.
Position N 28°37' W 016°02'.

Length 65 m; draft 4.7 m.

Type: Sailing vessel. MMSI: 218768000.

Date/timePositionNaut miles runAvg speedWind from/ knotsBaromVisibWave heightAir tempDewpointWater temp
2018-Dec-09 16:59N 28°37' W 016°02'3 5.6
2018-Dec-09 16:29N 28°34' W 016°01'2 5.4
2018-Dec-09 16:01N 28°31' W 016°01'3 5.4
2018-Dec-09 15:29N 28°28' W 016°01'2 4.1
2018-Dec-09 15:01N 28°27' W 016°03'3 6.8
2018-Dec-09 14:30N 28°27' W 016°07'3 6.8
2018-Dec-09 14:00N 28°27' W 016°10'3 6.7
2018-Dec-09 13:31N 28°27' W 016°14'1 1.4
2018-Dec-09 12:58N 28°28' W 016°15'0 0.0
2018-Dec-09 12:28N 28°28' W 016°15'0 0.0
2018-Dec-09 11:58N 28°28' W 016°15'0 0.0
2018-Dec-09 11:28N 28°28' W 016°15'0 0.0
2018-Dec-09 10:58N 28°28' W 016°15'0 0.0
2018-Dec-09 10:28N 28°28' W 016°15'0 0.0
2018-Dec-09 09:58N 28°28' W 016°15'0 0.0
2018-Dec-09 09:28N 28°28' W 016°15'0 0.0
2018-Dec-09 08:58N 28°28' W 016°15'0 0.0
2018-Dec-09 08:28N 28°28' W 016°15'0 0.0
2018-Dec-09 07:58N 28°28' W 016°15'0 0.0
2018-Dec-09 07:28N 28°28' W 016°15'0 0.0
2018-Dec-09 06:58N 28°28' W 016°15'0 0.0
2018-Dec-09 06:28N 28°28' W 016°15'0 0.0
2018-Dec-09 05:58N 28°28' W 016°15'0 0.0
2018-Dec-09 05:28N 28°28' W 016°15'0 0.0
2018-Dec-09 04:58N 28°28' W 016°15'0 0.0
2018-Dec-09 04:28N 28°28' W 016°15'0 0.0
2018-Dec-09 03:58N 28°28' W 016°15'0 0.0
2018-Dec-09 03:28N 28°28' W 016°15'0 0.0
2018-Dec-09 02:58N 28°28' W 016°15'0 0.0
2018-Dec-09 02:28N 28°28' W 016°15'0 0.0
2018-Dec-09 01:58N 28°28' W 016°15'0 0.0
2018-Dec-09 01:28N 28°28' W 016°15'0 0.0
2018-Dec-09 00:58N 28°28' W 016°15'0 0.0
2018-Dec-09 00:28N 28°28' W 016°15'0 0.0
2018-Dec-08 23:58N 28°28' W 016°15'0 0.0
2018-Dec-08 23:28N 28°28' W 016°15'0 0.0
2018-Dec-08 22:58N 28°28' W 016°15'0 0.0
2018-Dec-08 22:28N 28°28' W 016°15'0 0.0
2018-Dec-08 21:58N 28°28' W 016°15'0 0.0
2018-Dec-08 21:28N 28°28' W 016°15'0 0.0
2018-Dec-08 20:58N 28°28' W 016°15'0 0.0
2018-Dec-08 20:28N 28°28' W 016°15'0 0.0
2018-Dec-08 19:58N 28°28' W 016°15'0 0.0
2018-Dec-08 19:28N 28°28' W 016°15'0 0.0
2018-Dec-08 18:58N 28°28' W 016°15'0 0.0
2018-Dec-08 18:28N 28°28' W 016°15'0 0.0
2018-Dec-08 17:58N 28°28' W 016°15'0 0.0
2018-Dec-08 17:28N 28°28' W 016°15'0 0.0
2018-Dec-08 16:58N 28°28' W 016°15'0 0.0
2018-Dec-08 16:28N 28°28' W 016°15'0 0.0
2018-Dec-08 15:58N 28°28' W 016°15'0 0.0
2018-Dec-08 15:28N 28°28' W 016°15'0 0.0
2018-Dec-08 14:58N 28°28' W 016°15'0 0.0
2018-Dec-08 14:28N 28°28' W 016°15'0 0.0
2018-Dec-08 13:58N 28°28' W 016°15'0 0.0
2018-Dec-08 13:28N 28°28' W 016°15'0 0.0
2018-Dec-08 12:58N 28°28' W 016°15'0 0.0
2018-Dec-08 12:28N 28°28' W 016°15'0 0.0
2018-Dec-08 11:58N 28°28' W 016°15'0 0.0
2018-Dec-08 11:28N 28°28' W 016°15'0 0.0
2018-Dec-08 10:58N 28°28' W 016°15'0 0.0
2018-Dec-08 10:28N 28°28' W 016°15'0 0.0
2018-Dec-08 09:58N 28°28' W 016°15'0 0.0
2018-Dec-08 09:28N 28°28' W 016°15'0 0.0
2018-Dec-08 08:58N 28°28' W 016°15'0 0.0
2018-Dec-08 08:28N 28°28' W 016°15'0 0.0
2018-Dec-08 07:58N 28°28' W 016°15'0 0.0
2018-Dec-08 07:28N 28°28' W 016°15'0 0.0
2018-Dec-08 06:58N 28°28' W 016°15'0 0.0
2018-Dec-08 06:28N 28°28' W 016°15'0 0.0
2018-Dec-08 05:58N 28°28' W 016°15'0 0.0
2018-Dec-08 05:28N 28°28' W 016°15'0 0.0
2018-Dec-08 04:58N 28°28' W 016°15'0 0.0
2018-Dec-08 04:28N 28°28' W 016°15'0 0.0
2018-Dec-08 03:58N 28°28' W 016°15'0 0.0
2018-Dec-08 03:28N 28°28' W 016°15'0 0.0
2018-Dec-08 02:58N 28°28' W 016°15'0 0.0
2018-Dec-08 02:28N 28°28' W 016°15'0 0.0
2018-Dec-08 01:58N 28°28' W 016°15'0 0.0
2018-Dec-08 01:28N 28°28' W 016°15'0 0.0
2018-Dec-08 00:58N 28°28' W 016°15'0 0.0
2018-Dec-08 00:28N 28°28' W 016°15'0 0.0
2018-Dec-07 23:58N 28°28' W 016°15'0 0.0
2018-Dec-07 23:28N 28°28' W 016°15'0 0.0
2018-Dec-07 22:58N 28°28' W 016°15'0 0.0
2018-Dec-07 22:28N 28°28' W 016°15'0 0.0
2018-Dec-07 21:58N 28°28' W 016°15'0 0.0
2018-Dec-07 21:28N 28°28' W 016°15'0 0.0
2018-Dec-07 20:58N 28°28' W 016°15'0 0.0
2018-Dec-07 20:28N 28°28' W 016°15'0 0.0
2018-Dec-07 19:58N 28°28' W 016°15'0 0.0
2018-Dec-07 19:28N 28°28' W 016°15'0 0.0
2018-Dec-07 18:58N 28°28' W 016°15'0 0.0
2018-Dec-07 18:28N 28°28' W 016°15'0 0.0
2018-Dec-07 17:58N 28°28' W 016°15'0 0.0
2018-Dec-07 17:28N 28°28' W 016°15'0 0.0
2018-Dec-07 16:55N 28°28' W 016°15'0 0.0
2018-Dec-07 16:28N 28°28' W 016°15'0 0.0
2018-Dec-07 15:58N 28°28' W 016°15'0 0.0
2018-Dec-07 15:28N 28°28' W 016°15'0 0.0
2018-Dec-07 14:58N 28°28' W 016°15'0 0.0
2018-Dec-07 14:28N 28°28' W 016°15'0 0.0
2018-Dec-07 13:58N 28°28' W 016°15'0 0.0
2018-Dec-07 13:28N 28°28' W 016°15'0 0.0
2018-Dec-07 12:55N 28°28' W 016°15'0 0.0
2018-Dec-07 12:28N 28°28' W 016°15'0 0.0
2018-Dec-07 11:58N 28°28' W 016°15'0 0.0
2018-Dec-07 11:25N 28°28' W 016°15'0 0.0
2018-Dec-07 10:58N 28°28' W 016°15'0 0.0
2018-Dec-07 10:28N 28°28' W 016°15'0 0.0
2018-Dec-07 09:58N 28°28' W 016°15'0 0.0
2018-Dec-07 09:25N 28°28' W 016°15'0 0.0
2018-Dec-07 08:58N 28°28' W 016°15'0 0.0
2018-Dec-07 08:28N 28°28' W 016°15'0 0.0
2018-Dec-07 07:58N 28°28' W 016°15'0 0.0
2018-Dec-07 07:28N 28°28' W 016°15'0 0.0
2018-Dec-07 06:58N 28°28' W 016°15'0 0.0
2018-Dec-07 06:28N 28°28' W 016°15'0 0.0
2018-Dec-07 05:58N 28°28' W 016°15'0 0.0
2018-Dec-07 05:28N 28°28' W 016°15'0 0.0
2018-Dec-07 04:58N 28°28' W 016°15'0 0.0
2018-Dec-07 04:28N 28°28' W 016°15'0 0.0
2018-Dec-07 03:58N 28°28' W 016°15'0 0.0
2018-Dec-07 03:28N 28°28' W 016°15'0 0.0
2018-Dec-07 02:28N 28°28' W 016°15'0 0.0
2018-Dec-07 01:58N 28°28' W 016°15'0 0.0
2018-Dec-07 01:28N 28°28' W 016°15'0 0.0
2018-Dec-07 00:58N 28°28' W 016°15'0 0.0
2018-Dec-07 00:28N 28°28' W 016°15'0 0.0
2018-Dec-06 23:58N 28°28' W 016°15'0 0.0
2018-Dec-06 23:28N 28°28' W 016°15'0 0.0
2018-Dec-06 22:58N 28°28' W 016°15'0 0.0
2018-Dec-06 22:28N 28°28' W 016°15'0 0.0
2018-Dec-06 21:58N 28°28' W 016°15'0 0.0
2018-Dec-06 21:28N 28°28' W 016°15'0 0.0
2018-Dec-06 20:58N 28°28' W 016°15'0 0.0
2018-Dec-06 20:28N 28°28' W 016°15'0 0.0
2018-Dec-06 19:58N 28°28' W 016°15'0 0.0
2018-Dec-06 19:28N 28°28' W 016°15'0 0.0
2018-Dec-06 18:58N 28°28' W 016°15'0 0.0
2018-Dec-06 18:28N 28°28' W 016°15'0 0.0
2018-Dec-06 17:58N 28°28' W 016°15'0 0.0
2018-Dec-06 17:28N 28°28' W 016°15'0 0.0
2018-Dec-06 16:58N 28°28' W 016°15'0 0.0
2018-Dec-06 16:28N 28°28' W 016°15'0 0.0
2018-Dec-06 15:58N 28°28' W 016°15'0 0.0
2018-Dec-06 15:30N 28°28' W 016°15'1 1.3
2018-Dec-06 15:00N 28°27' W 016°15'0 0.6
2018-Dec-06 14:31N 28°27' W 016°14'3 6.5
2018-Dec-06 14:00N 28°26' W 016°11'2 4.3
2018-Dec-06 13:30N 28°24' W 016°09'1 2.1
2018-Dec-06 13:00N 28°23' W 016°09'1 2.2
2018-Dec-06 12:29N 28°22' W 016°08'1 1.9
2018-Dec-06 12:00N 28°22' W 016°07'1 2.4
2018-Dec-06 11:30N 28°21' W 016°07'1 2.9
2018-Dec-06 11:00N 28°19' W 016°06'1 2.2
2018-Dec-06 10:30N 28°18' W 016°06'1 2.5
2018-Dec-06 09:59N 28°17' W 016°05'1 2.2
2018-Dec-06 09:30N 28°16' W 016°04'2 3.6
2018-Dec-06 09:00N 28°18' W 016°04'2 4.5
2018-Dec-06 08:31N 28°20' W 016°03'3 5.4
2018-Dec-06 08:00N 28°23' W 016°02'2 4.8
2018-Dec-06 07:30N 28°25' W 016°01'3 5.2
2018-Dec-06 07:00N 28°27' W 015°59'2 4.5
2018-Dec-06 06:30N 28°29' W 015°58'2 4.2
2018-Dec-06 06:00N 28°31' W 015°56'3 5.2
2018-Dec-06 05:24N 28°33' W 015°54'2 4.2
2018-Dec-06 05:00N 28°35' W 015°53'11 5.3
2018-Dec-06 03:00N 28°44' W 015°47'22 7.3
2018-Dec-06 00:00N 29°00' W 015°30'46 2.7 090 / 151021.010.8 21.516.121.0
2018-Dec-05 06:59N 29°36' W 014°57'29 5.4
2018-Dec-05 01:35N 29°07' W 014°54'1 5.3
2018-Dec-05 01:27N 29°07' W 014°54'4 4.7
2018-Dec-05 00:38N 29°03' W 014°52'1 4.0
2018-Dec-05 00:30N 29°03' W 014°52'4 8.8
2018-Dec-05 00:00N 29°00' W 014°48'10 2.4 070 / 141018.010.8 21.018.021.0
2018-Dec-04 19:37N 28°50' W 014°44'9 1.2
2018-Dec-04 12:00N 28°42' W 014°48'8 3.1 120 / 51019.010.8 24.014.621.0
2018-Dec-04 09:21N 28°34' W 014°50'8 2.3
2018-Dec-04 05:39N 28°26' W 014°53'0 1.2
2018-Dec-04 05:30N 28°26' W 014°53'1 1.2
2018-Dec-04 04:29N 28°24' W 014°52'2 2.1
2018-Dec-04 03:25N 28°22' W 014°51'3 3.2
2018-Dec-04 02:19N 28°19' W 014°49'0 1.6
2018-Dec-04 02:00N 28°19' W 014°49'1 1.6
2018-Dec-04 01:30N 28°18' W 014°48'2 2.2
2018-Dec-04 00:34N 28°17' W 014°47'0 2.6
2018-Dec-04 00:28N 28°16' W 014°47'1 2.8
2018-Dec-04 00:00N 28°15' W 014°46'51492.3
2018-Dec-04 00:00N 28°12' W 014°42'4 7.2 060 / 71020.010.8 21.517.720.5
2018-Dec-03 23:29N 28°14' W 014°45'1 2.8
2018-Dec-03 23:00N 28°13' W 014°45'1 2.3
2018-Dec-03 22:30N 28°12' W 014°44'1 2.5
2018-Dec-03 21:57N 28°11' W 014°43'5 2.7
2018-Dec-03 20:12N 28°07' W 014°40'0 1.0
2018-Dec-03 20:00N 28°07' W 014°40'1 1.5
2018-Dec-03 19:24N 28°06' W 014°40'1 1.3
2018-Dec-03 18:49N 28°05' W 014°39'9 2.5
2018-Dec-03 15:15N 27°56' W 014°37'1 4.0
2018-Dec-03 14:58N 27°55' W 014°36'3 4.6
2018-Dec-03 14:22N 27°53' W 014°36'2 4.5
2018-Dec-03 14:00N 27°51' W 014°35'5 4.4
2018-Dec-03 12:49N 27°46' W 014°34'10 3.6
2018-Dec-03 09:59N 27°37' W 014°29'4 3.6
2018-Dec-03 09:00N 27°40' W 014°29'  
Track history (hours):
 
Tides and Currents Weather Stations Pressure Air Temp Water Temp Dewpoint Dewpoint Depression Visibility Wind Speed Wind Dir Waves Ship Positions

Alexander von Humboldt II

Ship's website: https://www.alex-2.de/en/

Last reported at 2018-Dec-09 16:59 UTC. Time now 2018-Dec-11 01:16 UTC.
Position N 28°37' W 016°02'.

Length 65 m; draft 4.7 m.

Type: Sailing vessel. MMSI: 218768000.

Date/timePositionNaut miles runAvg speedWind from/ knotsBaromVisibWave heightAir tempDewpointWater temp
2018-Dec-09 16:59N 28°37' W 016°02'3 5.6
2018-Dec-09 16:29N 28°34' W 016°01'2 5.4
2018-Dec-09 16:01N 28°31' W 016°01'3 5.4
2018-Dec-09 15:29N 28°28' W 016°01'2 4.1
2018-Dec-09 15:01N 28°27' W 016°03'3 6.8
2018-Dec-09 14:30N 28°27' W 016°07'3 6.8
2018-Dec-09 14:00N 28°27' W 016°10'3 6.7
2018-Dec-09 13:31N 28°27' W 016°14'1 1.4
2018-Dec-09 12:58N 28°28' W 016°15'0 0.0
2018-Dec-09 12:28N 28°28' W 016°15'0 0.0
2018-Dec-09 11:58N 28°28' W 016°15'0 0.0
2018-Dec-09 11:28N 28°28' W 016°15'0 0.0
2018-Dec-09 10:58N 28°28' W 016°15'0 0.0
2018-Dec-09 10:28N 28°28' W 016°15'0 0.0
2018-Dec-09 09:58N 28°28' W 016°15'0 0.0
2018-Dec-09 09:28N 28°28' W 016°15'0 0.0
2018-Dec-09 08:58N 28°28' W 016°15'0 0.0
2018-Dec-09 08:28N 28°28' W 016°15'0 0.0
2018-Dec-09 07:58N 28°28' W 016°15'0 0.0
2018-Dec-09 07:28N 28°28' W 016°15'0 0.0
2018-Dec-09 06:58N 28°28' W 016°15'0 0.0
2018-Dec-09 06:28N 28°28' W 016°15'0 0.0
2018-Dec-09 05:58N 28°28' W 016°15'0 0.0
2018-Dec-09 05:28N 28°28' W 016°15'0 0.0
2018-Dec-09 04:58N 28°28' W 016°15'0 0.0
2018-Dec-09 04:28N 28°28' W 016°15'0 0.0
2018-Dec-09 03:58N 28°28' W 016°15'0 0.0
2018-Dec-09 03:28N 28°28' W 016°15'0 0.0
2018-Dec-09 02:58N 28°28' W 016°15'0 0.0
2018-Dec-09 02:28N 28°28' W 016°15'0 0.0
2018-Dec-09 01:58N 28°28' W 016°15'0 0.0
2018-Dec-09 01:28N 28°28' W 016°15'0 0.0
2018-Dec-09 00:58N 28°28' W 016°15'0 0.0
2018-Dec-09 00:28N 28°28' W 016°15'0 0.0
2018-Dec-08 23:58N 28°28' W 016°15'0 0.0
2018-Dec-08 23:28N 28°28' W 016°15'0 0.0
2018-Dec-08 22:58N 28°28' W 016°15'0 0.0
2018-Dec-08 22:28N 28°28' W 016°15'0 0.0
2018-Dec-08 21:58N 28°28' W 016°15'0 0.0
2018-Dec-08 21:28N 28°28' W 016°15'0 0.0
2018-Dec-08 20:58N 28°28' W 016°15'0 0.0
2018-Dec-08 20:28N 28°28' W 016°15'0 0.0
2018-Dec-08 19:58N 28°28' W 016°15'0 0.0
2018-Dec-08 19:28N 28°28' W 016°15'0 0.0
2018-Dec-08 18:58N 28°28' W 016°15'0 0.0
2018-Dec-08 18:28N 28°28' W 016°15'0 0.0
2018-Dec-08 17:58N 28°28' W 016°15'0 0.0
2018-Dec-08 17:28N 28°28' W 016°15'0 0.0
2018-Dec-08 16:58N 28°28' W 016°15'0 0.0
2018-Dec-08 16:28N 28°28' W 016°15'0 0.0
2018-Dec-08 15:58N 28°28' W 016°15'0 0.0
2018-Dec-08 15:28N 28°28' W 016°15'0 0.0
2018-Dec-08 14:58N 28°28' W 016°15'0 0.0
2018-Dec-08 14:28N 28°28' W 016°15'0 0.0
2018-Dec-08 13:58N 28°28' W 016°15'0 0.0
2018-Dec-08 13:28N 28°28' W 016°15'0 0.0
2018-Dec-08 12:58N 28°28' W 016°15'0 0.0
2018-Dec-08 12:28N 28°28' W 016°15'0 0.0
2018-Dec-08 11:58N 28°28' W 016°15'0 0.0
2018-Dec-08 11:28N 28°28' W 016°15'0 0.0
2018-Dec-08 10:58N 28°28' W 016°15'0 0.0
2018-Dec-08 10:28N 28°28' W 016°15'0 0.0
2018-Dec-08 09:58N 28°28' W 016°15'0 0.0
2018-Dec-08 09:28N 28°28' W 016°15'0 0.0
2018-Dec-08 08:58N 28°28' W 016°15'0 0.0
2018-Dec-08 08:28N 28°28' W 016°15'0 0.0
2018-Dec-08 07:58N 28°28' W 016°15'0 0.0
2018-Dec-08 07:28N 28°28' W 016°15'0 0.0
2018-Dec-08 06:58N 28°28' W 016°15'0 0.0
2018-Dec-08 06:28N 28°28' W 016°15'0 0.0
2018-Dec-08 05:58N 28°28' W 016°15'0 0.0
2018-Dec-08 05:28N 28°28' W 016°15'0 0.0
2018-Dec-08 04:58N 28°28' W 016°15'0 0.0
2018-Dec-08 04:28N 28°28' W 016°15'0 0.0
2018-Dec-08 03:58N 28°28' W 016°15'0 0.0
2018-Dec-08 03:28N 28°28' W 016°15'0 0.0
2018-Dec-08 02:58N 28°28' W 016°15'0 0.0
2018-Dec-08 02:28N 28°28' W 016°15'0 0.0
2018-Dec-08 01:58N 28°28' W 016°15'0 0.0
2018-Dec-08 01:28N 28°28' W 016°15'0 0.0
2018-Dec-08 00:58N 28°28' W 016°15'0 0.0
2018-Dec-08 00:28N 28°28' W 016°15'0 0.0
2018-Dec-07 23:58N 28°28' W 016°15'0 0.0
2018-Dec-07 23:28N 28°28' W 016°15'0 0.0
2018-Dec-07 22:58N 28°28' W 016°15'0 0.0
2018-Dec-07 22:28N 28°28' W 016°15'0 0.0
2018-Dec-07 21:58N 28°28' W 016°15'0 0.0
2018-Dec-07 21:28N 28°28' W 016°15'0 0.0
2018-Dec-07 20:58N 28°28' W 016°15'0 0.0
2018-Dec-07 20:28N 28°28' W 016°15'0 0.0
2018-Dec-07 19:58N 28°28' W 016°15'0 0.0
2018-Dec-07 19:28N 28°28' W 016°15'0 0.0
2018-Dec-07 18:58N 28°28' W 016°15'0 0.0
2018-Dec-07 18:28N 28°28' W 016°15'0 0.0
2018-Dec-07 17:58N 28°28' W 016°15'0 0.0
2018-Dec-07 17:28N 28°28' W 016°15'0 0.0
2018-Dec-07 16:55N 28°28' W 016°15'0 0.0
2018-Dec-07 16:28N 28°28' W 016°15'0 0.0
2018-Dec-07 15:58N 28°28' W 016°15'0 0.0
2018-Dec-07 15:28N 28°28' W 016°15'0 0.0
2018-Dec-07 14:58N 28°28' W 016°15'0 0.0
2018-Dec-07 14:28N 28°28' W 016°15'0 0.0
2018-Dec-07 13:58N 28°28' W 016°15'0 0.0
2018-Dec-07 13:28N 28°28' W 016°15'0 0.0
2018-Dec-07 12:55N 28°28' W 016°15'0 0.0
2018-Dec-07 12:28N 28°28' W 016°15'0 0.0
2018-Dec-07 11:58N 28°28' W 016°15'0 0.0
2018-Dec-07 11:25N 28°28' W 016°15'0 0.0
2018-Dec-07 10:58N 28°28' W 016°15'0 0.0
2018-Dec-07 10:28N 28°28' W 016°15'0 0.0
2018-Dec-07 09:58N 28°28' W 016°15'0 0.0
2018-Dec-07 09:25N 28°28' W 016°15'0 0.0
2018-Dec-07 08:58N 28°28' W 016°15'0 0.0
2018-Dec-07 08:28N 28°28' W 016°15'0 0.0
2018-Dec-07 07:58N 28°28' W 016°15'0 0.0
2018-Dec-07 07:28N 28°28' W 016°15'0 0.0
2018-Dec-07 06:58N 28°28' W 016°15'0 0.0
2018-Dec-07 06:28N 28°28' W 016°15'0 0.0
2018-Dec-07 05:58N 28°28' W 016°15'0 0.0
2018-Dec-07 05:28N 28°28' W 016°15'0 0.0
2018-Dec-07 04:58N 28°28' W 016°15'0 0.0
2018-Dec-07 04:28N 28°28' W 016°15'0 0.0
2018-Dec-07 03:58N 28°28' W 016°15'0 0.0
2018-Dec-07 03:28N 28°28' W 016°15'0 0.0
2018-Dec-07 02:28N 28°28' W 016°15'0 0.0
2018-Dec-07 01:58N 28°28' W 016°15'0 0.0
2018-Dec-07 01:28N 28°28' W 016°15'0 0.0
2018-Dec-07 00:58N 28°28' W 016°15'0 0.0
2018-Dec-07 00:28N 28°28' W 016°15'0 0.0
2018-Dec-06 23:58N 28°28' W 016°15'0 0.0
2018-Dec-06 23:28N 28°28' W 016°15'0 0.0
2018-Dec-06 22:58N 28°28' W 016°15'0 0.0
2018-Dec-06 22:28N 28°28' W 016°15'0 0.0
2018-Dec-06 21:58N 28°28' W 016°15'0 0.0
2018-Dec-06 21:28N 28°28' W 016°15'0 0.0
2018-Dec-06 20:58N 28°28' W 016°15'0 0.0
2018-Dec-06 20:28N 28°28' W 016°15'0 0.0
2018-Dec-06 19:58N 28°28' W 016°15'0 0.0
2018-Dec-06 19:28N 28°28' W 016°15'0 0.0
2018-Dec-06 18:58N 28°28' W 016°15'0 0.0
2018-Dec-06 18:28N 28°28' W 016°15'0 0.0
2018-Dec-06 17:58N 28°28' W 016°15'0 0.0
2018-Dec-06 17:28N 28°28' W 016°15'0 0.0
2018-Dec-06 16:58N 28°28' W 016°15'0 0.0
2018-Dec-06 16:28N 28°28' W 016°15'0 0.0
2018-Dec-06 15:58N 28°28' W 016°15'0 0.0
2018-Dec-06 15:30N 28°28' W 016°15'1 1.3
2018-Dec-06 15:00N 28°27' W 016°15'0 0.6
2018-Dec-06 14:31N 28°27' W 016°14'3 6.5
2018-Dec-06 14:00N 28°26' W 016°11'2 4.3
2018-Dec-06 13:30N 28°24' W 016°09'1 2.1
2018-Dec-06 13:00N 28°23' W 016°09'1 2.2
2018-Dec-06 12:29N 28°22' W 016°08'1 1.9
2018-Dec-06 12:00N 28°22' W 016°07'1 2.4
2018-Dec-06 11:30N 28°21' W 016°07'1 2.9
2018-Dec-06 11:00N 28°19' W 016°06'1 2.2
2018-Dec-06 10:30N 28°18' W 016°06'1 2.5
2018-Dec-06 09:59N 28°17' W 016°05'1 2.2
2018-Dec-06 09:30N 28°16' W 016°04'2 3.6
2018-Dec-06 09:00N 28°18' W 016°04'2 4.5
2018-Dec-06 08:31N 28°20' W 016°03'3 5.4
2018-Dec-06 08:00N 28°23' W 016°02'2 4.8
2018-Dec-06 07:30N 28°25' W 016°01'3 5.2
2018-Dec-06 07:00N 28°27' W 015°59'2 4.5
2018-Dec-06 06:30N 28°29' W 015°58'2 4.2
2018-Dec-06 06:00N 28°31' W 015°56'3 5.2
2018-Dec-06 05:24N 28°33' W 015°54'2 4.2
2018-Dec-06 05:00N 28°35' W 015°53'11 5.3
2018-Dec-06 03:00N 28°44' W 015°47'22 7.3
2018-Dec-06 00:00N 29°00' W 015°30'46 2.7 090 / 151021.010.8 21.516.121.0
2018-Dec-05 06:59N 29°36' W 014°57'29 5.4
2018-Dec-05 01:35N 29°07' W 014°54'1 5.3
2018-Dec-05 01:27N 29°07' W 014°54'4 4.7
2018-Dec-05 00:38N 29°03' W 014°52'1 4.0
2018-Dec-05 00:30N 29°03' W 014°52'4 8.8
2018-Dec-05 00:00N 29°00' W 014°48'10 2.4 070 / 141018.010.8 21.018.021.0
2018-Dec-04 19:37N 28°50' W 014°44'9 1.2
2018-Dec-04 12:00N 28°42' W 014°48'8 3.1 120 / 51019.010.8 24.014.621.0
2018-Dec-04 09:21N 28°34' W 014°50'8 2.3
2018-Dec-04 05:39N 28°26' W 014°53'0 1.2
2018-Dec-04 05:30N 28°26' W 014°53'1 1.2
2018-Dec-04 04:29N 28°24' W 014°52'2 2.1
2018-Dec-04 03:25N 28°22' W 014°51'3 3.2
2018-Dec-04 02:19N 28°19' W 014°49'0 1.6
2018-Dec-04 02:00N 28°19' W 014°49'1 1.6
2018-Dec-04 01:30N 28°18' W 014°48'2 2.2
2018-Dec-04 00:34N 28°17' W 014°47'0 2.6
2018-Dec-04 00:28N 28°16' W 014°47'1 2.8
2018-Dec-04 00:00N 28°15' W 014°46'51492.3
2018-Dec-04 00:00N 28°12' W 014°42'4 7.2 060 / 71020.010.8 21.517.720.5
2018-Dec-03 23:29N 28°14' W 014°45'1 2.8
2018-Dec-03 23:00N 28°13' W 014°45'1 2.3
2018-Dec-03 22:30N 28°12' W 014°44'1 2.5
2018-Dec-03 21:57N 28°11' W 014°43'5 2.7
2018-Dec-03 20:12N 28°07' W 014°40'0 1.0
2018-Dec-03 20:00N 28°07' W 014°40'1 1.5
2018-Dec-03 19:24N 28°06' W 014°40'1 1.3
2018-Dec-03 18:49N 28°05' W 014°39'9 2.5
2018-Dec-03 15:15N 27°56' W 014°37'1 4.0
2018-Dec-03 14:58N 27°55' W 014°36'3 4.6
2018-Dec-03 14:22N 27°53' W 014°36'2 4.5
2018-Dec-03 14:00N 27°51' W 014°35'5 4.4
2018-Dec-03 12:49N 27°46' W 014°34'10 3.6
2018-Dec-03 09:59N 27°37' W 014°29'4 3.6
2018-Dec-03 09:00N 27°40' W 014°29'  

Dump ship's entire track history